Friday, April 18, 2014
08:04 UTC
  |  Log In   |  Register Free
Airport Search:

Coleman Municipal Airport
(KCOM)

Coleman Municipal Airport Diagram
No Airport Diagram Available

FAA data valid effective April 3, 2014 until May 29, 2014 (unless otherwise noted).

 
 
 
 
 
 
 
 
 
 
 
 
 
 

Current Aviation Weather for Coleman Municipal Airport (KCOM)

The most recent METAR observation for KCOM was updated at: 0735 UTC
METAR Summary (Translated METAR)
KCOM
180735Z AUTO 00000KT 7SM OVC007 14/12 A3020 RMK AO2 T01420115
KBWD
(23 nm SE from KCOM)
180755Z AUTO 09003KT 5SM BR FEW006 BKN018 OVC027 14/14 A3020 RMK AO2
TAF Summary (Translated TAF)
KABI
(37 nm NW from KCOM)
180520Z 1806/1906 33006KT P6SM OVC006 FM181700 15005KT P6SM OVC015 FM182000 14006KT P6SM SCT025 FM190000 13009KT P6SM BKN250
  Airport Weather Conditions for KCOM

 Current Weather at COM
57° F
Overcast
North winds at 4.6 mph
COM NOAA Radar

Pressure: 30.22 in
Humidity: 89%
Wind: North at 4.6 MPH (4 KT)
Dew Point: 54.0°F
Visibility: 10.00 mi


Airport Weather Forecast for KCOM

Translated METAR and TAF for KCOM
Translated METAR for KCOM (0804 UTC 18 April 2014)
found at http://aviationweather.gov/adds/metars/
 
METAR text: KCOM 180755Z AUTO 00000KT 10SM OVC009 14/12 A3020 RMK AO2 T01410115
Conditions at: KCOM (COLEMAN MUNI , TX, US) observed 0755 UTC 18 April 2014
Temperature: 14.1°C (57°F)
Dewpoint: 11.5°C (53°F) [RH = 84%]
Pressure (altimeter): 30.20 inches Hg (1022.8 mb)
Winds: calm
Visibility: 10 or more miles (16+ km)
Ceiling: 900 feet AGL
Clouds: overcast cloud deck at 900 feet AGL
Weather: automated observation with no human augmentation;
there may or may not be significant weather present at this time
Translated TAF for KCOM

There is no translated TAF available for this airport

Find All Airport Services Find A Hotel Find A Rental Car Find A Golf Course Find A Restaurant $100 Hamburger



FBO's on the Field
FBO Company Facility Photos Services Transportation Aviation Fuel Prices: Prices include tax
Catering Weather Repair Courtesy Rental Type 100LL JetA JetA+ MOGAS 8087
 
Add another FBO Facility Photos Catering Weather Repair Courtesy Rental Type 100LL JetA JetA+ MOGAS 8087
Services Transportation Aviation Fuel Prices: Prices include tax
There are no FBO's currently reporting fuel at COM. List your FBO now


GlobalAir.com Airport Resource Center model-print
model-print
model-print
model-print